Huvudsida
METAR-TAF:

METAR-TAF

Flygplatser :

Koror, Babeldaob, Palau

latitud: 07-22N, longitud: 134-32E, höjd: 54 m

Aktuellt väderrapport

Denna rapport gjordes för 29 minuter sedan, klockan 05:50 UTC
Vind 3 kt från ost/sydost
Temperatur 31°C
Fuktighet 66%
Tryck 1008 hPa
Sikt: 24.1 km
Spridda moln på en höjd av 1600 ft
Brutna moln på en höjd av 12000 ft
Brutna moln på en höjd av 30000 ft

METAR: PTRO 220550Z 12003KT 15SM SCT016 BKN120 BKN300 31/24 A2976

Tid: 15:19 (06:19 UTC)

Väderprognos

Denna rapport gjordes för 57 minuter sedan, klockan 05:22 UTC
Prognos gäller från 22 kl. 06 UTC till 23 kl. 06 UTC
Vind 6 kt från sydost
Sikt: 10 km
Spridda moln på en höjd av 1600 ft
Spridda moln på en höjd av 12000 ft
skurar i närheten

TAF: PTRO 220522Z 2206/2306 13006KT P6SM VCSH SCT016 SCT120

Aktuella väderrapporter och prognoser från 4000 flygplatser (METAR- och TAF-rapporter).

De tillgängliga stationerna syns som gula och röda prickar på kartan.

För musen över prickarna för att se namnen på stationerna.

Klicka sedan för att få väderrapporter och prognoser.

För att ändra kartan: Klicka på de gröna knapparna med ett svart kors på för att zooma in; den gröna knappen med ett streck på för att zooma ut; eller på de gröna pilarna för angränsande kartor.


METAR-TAF: